Tropical Cyclones
[Index]
Main Index Home Page Stock Weather Photos Extreme Storms Discussion Storm News and Storm Chasing Reports Tropical Cyclones / Hurricanes / Typhoons Weather Data and Links Wild Fires / Bushfires Weather Observation Techniques Weather Picture Catalogue Tornado Pictures and Reports Stock Video Footage and DVDs for sale
Season 1992-1993 Tropical Cyclone POLLY Track Map
Season 1992-1993 Summaries: [BoM-AU] [JTWC-AU] [JTWC-SIO] [JTWC-SPAC] [JTWC-SH]
<<- Previous TC | BoM 1992-1993 Season | Next TC ->>

click for intensity scale information  Lat/long Grid: Show Hide

 Date Labels: Show Hide

Bureau of Meteorology Tropical Cyclone Data

Name: POLLY
Number: 757 / 199293_05

24 Feb 1993 12:00 UTC to 01 Mar 1993 12:00 UTC

    date/time    lat    long    hPa   cat  kts
1993-02-24 12   14.7   157.7    998         30          
1993-02-24 18   15.3   157.8    996         30          
1993-02-25 00   16.0   158.0    995    1    35          
1993-02-25 06   16.4   158.2    995    1    40          
1993-02-25 12   16.8   158.5    990    1    40          
1993-02-25 18   17.4   158.8    980    2    55          
1993-02-26 00   17.7   158.9    975    2    60          
1993-02-26 06   18.1   159.0    970    3    65          
1993-02-26 12   18.1   159.1    965    3    70          
1993-02-26 18   18.2   159.2    960    3    75          
1993-02-27 00   18.3   159.5    960    3    75          
1993-02-27 06   18.4   159.5    960    3    80          
1993-02-27 12   18.4   159.9    955    4    80          
1993-02-27 18   18.4   160.1    955    4    80          
1993-02-28 00   18.6   160.1    955    4    80          
1993-02-28 06   19.1   160.0    955    4    80          
1993-02-28 12   19.4   160.0    960    3    80          
1993-02-28 18   19.8   160.1    960    3    80          
1993-03-01 00   20.6   160.2    955    4    85          
1993-03-01 06   21.2   160.8    955    4    85          
1993-03-01 12   22.3   162.2    955    4    86          
Winds are 10-min average.

Tropical cyclone tracks developed by Michael Bath using data from the Bureau of Meteorology and Google Maps.


[Australian Severe Weather index] [Copyright Notice] [Email Contacts] [Search This Site] [Privacy Policy]
Document: tropical_cyclone_polly.htm Updated: 4 April 2018